Time;durP1;ratioP1;P1;durP2;ratioP2;P2;SDS_P1;SDS_P2;PMS_P1;PMS_P2;Temp;Humidity;BMP_temperature;BMP_pressure;BME280_temperature;BME280_humidity;BME280_pressure;Samples;Min_cycle;Max_cycle;Signal;HPM_P1;HPM_P2
2022/04/18 00:01:01;;;;;;;92.10;61.20;;;;;;;4.09;53.75;101000.52;108916;1273;22094;-83
2022/04/18 00:03:31;;;;;;;88.90;60.10;;;;;;;4.08;53.76;101002.55;109165;1267;21993;-83
2022/04/18 00:06:09;;;;;;;89.40;61.20;;;;;;;4.05;53.70;100998.73;109260;1267;22949;-83
2022/04/18 00:08:49;;;;;;;87.20;59.80;;;;;;;4.01;53.75;100995.18;109326;1267;23637;-84
2022/04/18 00:11:35;;;;;;;90.80;60.80;;;;;;;3.95;53.61;100993.49;108911;1276;24307;-84
2022/04/18 00:14:12;;;;;;;76.70;53.70;;;;;;;3.90;53.72;100993.66;108499;1280;22046;-83
2022/04/18 00:16:42;;;;;;;88.90;61.00;;;;;;;3.88;53.84;100989.85;108604;1279;22033;-83
2022/04/18 00:19:21;;;;;;;93.50;64.30;;;;;;;3.84;53.74;100991.88;108498;1276;23059;-83
2022/04/18 00:21:53;;;;;;;;;;;;;;;3.81;53.77;100990.66;108845;1275;21960;-82
2022/04/18 00:24:26;;;;;;;99.80;63.10;;;;;;;3.70;54.00;100987.05;108738;1276;22070;-82
2022/04/18 00:26:58;;;;;;;95.30;63.00;;;;;;;3.68;54.17;100987.03;108585;1279;22135;-82
2022/04/18 00:29:28;;;;;;;95.60;63.80;;;;;;;3.71;54.46;100984.23;108545;1275;21997;-83
2022/04/18 00:32:11;;;;;;;87.70;61.00;;;;;;;3.72;54.72;100983.95;108866;1270;22010;-82
2022/04/18 00:34:48;;;;;;;83.10;54.50;;;;;;;3.71;54.89;100978.98;109254;1267;22071;-83
2022/04/18 00:37:22;;;;;;;81.10;58.20;;;;;;;3.69;55.18;100978.06;109227;1269;22421;-83
2022/04/18 00:39:54;;;;;;;83.30;53.50;;;;;;;3.67;55.10;100977.58;109286;1269;23086;-84
2022/04/18 00:42:32;;;;;;;76.50;50.90;;;;;;;3.63;55.32;100974.16;109266;1270;22006;-85
2022/04/18 00:45:04;;;;;;;70.60;45.70;;;;;;;3.60;55.43;100979.29;109465;1264;24094;-85
2022/04/18 00:47:39;;;;;;;67.60;44.50;;;;;;;3.57;55.36;100980.73;109405;1264;22262;-81
2022/04/18 00:50:23;;;;;;;66.20;44.10;;;;;;;3.51;55.18;100975.01;109616;1263;22006;-81
2022/04/18 00:53:09;;;;;;;68.30;46.80;;;;;;;3.45;55.08;100970.70;109627;1263;21974;-82
2022/04/18 00:55:42;;;;;;;65.80;43.80;;;;;;;3.40;55.03;100967.59;109641;1264;21981;-81
2022/04/18 00:58:41;;;;;;;58.80;39.30;;;;;;;3.36;55.15;100962.32;109919;1264;22720;-84
2022/04/18 01:01:26;;;;;;;58.20;39.80;;;;;;;3.31;55.20;100960.23;109401;1270;21967;-84
2022/04/18 01:04:19;;;;;;;59.40;40.00;;;;;;;3.26;55.24;100955.29;109215;1270;22110;-83
2022/04/18 01:07:09;;;;;;;51.00;36.10;;;;;;;3.23;55.06;100954.99;109137;1270;24313;-84
2022/04/18 01:09:56;;;;;;;49.60;33.80;;;;;;;3.20;54.88;100951.92;109154;1269;23721;-82
2022/04/18 01:12:41;;;;;;;46.90;34.10;;;;;;;3.16;54.88;100950.45;109263;1270;23091;-83
2022/04/18 01:15:35;;;;;;;49.20;34.10;;;;;;;3.13;54.88;100951.17;109333;1270;23739;-83
2022/04/18 01:18:20;;;;;;;44.00;31.20;;;;;;;3.08;54.76;100948.53;108958;1273;24329;-82
2022/04/18 01:21:19;;;;;;;45.20;32.10;;;;;;;3.04;54.73;100945.67;109468;1267;23686;-82
2022/04/18 01:30:12;;;;;;;44.90;29.30;;;;;;;2.94;55.12;100946.73;108386;1276;22112;-80
2022/04/18 01:32:46;;;;;;;42.00;27.80;;;;;;;2.96;55.08;100946.58;108657;1276;22407;-80
2022/04/18 01:35:20;;;;;;;38.60;26.60;;;;;;;2.99;55.23;100944.48;108702;1276;23712;-80
2022/04/18 01:37:55;;;;;;;39.00;25.40;;;;;;;2.99;55.26;100946.70;108517;1273;22089;-81
2022/04/18 01:40:27;;;;;;;35.00;23.90;;;;;;;2.98;55.23;100938.42;108684;1276;21991;-81
2022/04/18 01:42:58;;;;;;;33.00;22.90;;;;;;;2.95;55.23;100938.11;108488;1276;22001;-80
2022/04/18 01:45:31;;;;;;;38.80;22.70;;;;;;;2.93;55.16;100940.20;108545;1276;22001;-79
2022/04/18 01:48:19;;;;;;;29.50;20.40;;;;;;;2.89;55.27;100936.48;108512;1273;21954;-79
2022/04/18 01:50:48;;;;;;;25.30;18.60;;;;;;;2.84;55.35;100931.59;108538;1273;21986;-81
2022/04/18 01:53:30;;;;;;;27.80;19.80;;;;;;;2.79;55.40;100931.71;108743;1273;22050;-84
2022/04/18 01:56:10;;;;;;;28.10;18.10;;;;;;;2.76;55.47;100929.52;109102;1267;22055;-84
2022/04/18 01:58:48;;;;;;;30.40;20.30;;;;;;;2.73;55.45;100929.55;109367;1264;22055;-82
2022/04/18 02:01:42;;;;;;;;;;;;;;;;;;;;;
2022/04/18 02:04:28;;;;;;;29.00;20.20;;;;;;;2.66;55.49;100929.11;109176;1267;21990;-78
2022/04/18 02:07:00;;;;;;;35.70;22.50;;;;;;;2.63;55.57;100923.05;108832;1267;23709;-79
2022/04/18 02:09:33;;;;;;;35.80;22.50;;;;;;;2.60;55.57;100921.73;109093;1267;21981;-81
2022/04/18 02:12:13;;;;;;;40.50;27.00;;;;;;;2.54;55.43;100918.45;108727;1273;23060;-81
2022/04/18 02:15:00;;;;;;;43.00;24.70;;;;;;;2.47;55.46;100921.86;108384;1279;21990;-81
2022/04/18 02:17:36;;;;;;;42.10;25.30;;;;;;;2.44;55.76;100915.85;108466;1279;22066;-81
2022/04/18 02:20:10;;;;;;;40.00;25.10;;;;;;;2.45;56.05;100912.62;108704;1275;22169;-81
2022/04/18 02:22:47;;;;;;;41.20;25.50;;;;;;;2.48;56.21;100911.39;108402;1281;22108;-81
2022/04/18 02:25:19;;;;;;;39.90;24.40;;;;;;;2.48;56.34;100908.61;108334;1281;22043;-80
2022/04/18 02:27:51;;;;;;;35.30;25.70;;;;;;;2.47;56.36;100906.78;108340;1281;24385;-80
2022/04/18 02:30:23;;;;;;;36.30;25.30;;;;;;;2.44;56.41;100904.67;108371;1276;22017;-79
2022/04/18 02:33:02;;;;;;;38.80;26.00;;;;;;;2.43;56.47;100904.27;108826;1270;22114;-81
2022/04/18 02:36:01;;;;;;;38.20;27.60;;;;;;;2.37;56.58;100899.59;109156;1270;21980;-82
2022/04/18 02:38:31;;;;;;;38.30;28.30;;;;;;;2.32;56.58;100898.52;108655;1275;23067;-81
2022/04/18 02:41:00;;;;;;;39.40;28.50;;;;;;;2.26;56.54;100896.98;108704;1275;22009;-80
2022/04/18 02:43:33;;;;;;;40.00;30.20;;;;;;;2.21;56.70;100896.62;108656;1275;21997;-81
2022/04/18 02:46:10;;;;;;;43.70;29.90;;;;;;;2.16;56.79;100892.46;108518;1279;22218;-80
2022/04/18 02:48:56;;;;;;;41.20;29.30;;;;;;;2.11;56.93;100891.55;108708;1273;22004;-82
2022/04/18 02:51:27;;;;;;;39.50;29.20;;;;;;;2.07;57.04;100889.41;108622;1273;22006;-81
2022/04/18 02:54:03;;;;;;;42.40;30.10;;;;;;;2.02;57.07;100886.41;108728;1273;24807;-82
2022/04/18 02:56:37;;;;;;;;;;;;;;;2.01;57.21;100884.76;108843;1267;22736;-82
2022/04/18 02:59:09;;;;;;;36.20;27.30;;;;;;;1.94;57.26;100884.54;109098;1267;22752;-81
2022/04/18 03:01:42;;;;;;;39.10;26.90;;;;;;;1.94;57.35;100879.14;109177;1267;23052;-82
2022/04/18 03:04:21;;;;;;;39.50;27.40;;;;;;;1.97;57.45;100883.64;109122;1267;21986;-81
2022/04/18 03:07:08;;;;;;;38.60;28.30;;;;;;;1.96;57.45;100884.20;109241;1267;24058;-82
2022/04/18 03:09:50;;;;;;;41.80;27.10;;;;;;;1.91;57.59;100884.85;109163;1268;22022;-82
2022/04/18 03:12:29;;;;;;;37.50;27.40;;;;;;;1.88;57.76;100888.52;109299;1267;22456;-84
2022/04/18 03:15:08;;;;;;;35.90;26.80;;;;;;;1.84;57.95;100886.02;109394;1267;22010;-83
2022/04/18 03:17:40;;;;;;;39.40;26.00;;;;;;;1.80;58.04;100882.63;109292;1267;23007;-84
2022/04/18 03:20:39;;;;;;;35.10;25.00;;;;;;;1.75;58.25;100877.40;109188;1266;21952;-83
2022/04/18 03:23:11;;;;;;;36.20;26.10;;;;;;;1.72;58.48;100872.20;109451;1267;21976;-83
2022/04/18 03:26:09;;;;;;;34.00;24.50;;;;;;;1.68;58.46;100870.35;109327;1267;22004;-82
2022/04/18 03:28:51;;;;;;;32.90;25.10;;;;;;;1.63;58.41;100873.14;109566;1263;23694;-81
2022/04/18 03:31:29;;;;;;;34.80;24.50;;;;;;;1.56;58.30;100875.46;109549;1263;21983;-81
2022/04/18 03:34:24;;;;;;;;;;;;;;;;;;;;;
2022/04/18 03:39:58;;;;;;;32.90;23.30;;;;;;;1.48;58.72;100873.73;109680;1264;23025;-81
2022/04/18 03:42:33;;;;;;;30.00;21.00;;;;;;;1.49;59.07;100874.33;108882;1270;23704;-80
2022/04/18 03:45:12;;;;;;;27.10;20.80;;;;;;;1.53;59.33;100878.09;108751;1273;22012;-82
2022/04/18 03:47:41;;;;;;;30.60;20.90;;;;;;;1.56;59.58;100874.63;108726;1275;22013;-80
2022/04/18 03:50:24;;;;;;;33.70;20.80;;;;;;;1.56;59.56;100876.64;108488;1275;21988;-80
2022/04/18 03:52:53;;;;;;;31.70;22.10;;;;;;;1.55;59.51;100875.20;108728;1273;23105;-79
2022/04/18 03:55:31;;;;;;;30.70;21.80;;;;;;;1.53;59.50;100875.51;108793;1273;22047;-82
2022/04/18 03:58:20;;;;;;;29.20;18.60;;;;;;;1.49;59.55;100876.11;108679;1275;22103;-82
2022/04/18 04:00:49;;;;;;;;;;;;;;;1.48;59.83;100873.41;108760;1273;21972;-82
2022/04/18 04:03:50;;;;;;;27.80;18.50;;;;;;;1.43;59.99;100874.59;108967;1273;24210;-79
2022/04/18 04:06:33;;;;;;;22.70;17.50;;;;;;;1.45;60.23;100875.29;109085;1273;21999;-80
2022/04/18 04:09:04;;;;;;;26.30;17.90;;;;;;;1.54;60.33;100877.52;109040;1270;22136;-84
2022/04/18 04:11:49;;;;;;;23.10;16.80;;;;;;;1.60;60.32;100879.73;109158;1267;22276;-81
2022/04/18 04:14:21;;;;;;;25.00;17.30;;;;;;;1.63;60.33;100875.89;109023;1267;21974;-80
2022/04/18 04:16:51;;;;;;;23.60;17.50;;;;;;;1.66;60.34;100881.46;109285;1267;22489;-79
2022/04/18 04:19:22;;;;;;;25.80;18.50;;;;;;;1.68;60.48;100881.87;109385;1264;22285;-77
2022/04/18 04:22:17;;;;;;;25.70;18.30;;;;;;;1.68;60.51;100881.31;109804;1264;22495;-78
2022/04/18 04:24:52;;;;;;;28.60;19.20;;;;;;;1.69;60.59;100878.13;109273;1264;23060;-78
2022/04/18 04:27:25;;;;;;;18.70;15.80;;;;;;;1.71;60.65;100876.95;109232;1264;21979;-79
2022/04/18 04:29:55;;;;;;;22.60;16.60;;;;;;;1.72;60.67;100877.27;109613;1264;21979;-79
2022/04/18 04:32:36;;;;;;;20.50;16.70;;;;;;;1.72;60.59;100874.77;109437;1264;24410;-78
2022/04/18 04:35:05;;;;;;;24.80;16.80;;;;;;;1.73;60.65;100871.30;109607;1264;24151;-78
2022/04/18 04:37:49;;;;;;;29.80;18.30;;;;;;;1.79;60.96;100872.41;109224;1264;21962;-78
2022/04/18 04:40:38;;;;;;;24.80;16.60;;;;;;;1.98;61.66;100870.16;109292;1264;22148;-79
2022/04/18 04:43:12;;;;;;;28.00;16.90;;;;;;;2.21;62.08;100864.45;109356;1264;21969;-79
2022/04/18 04:45:52;;;;;;;23.00;16.10;;;;;;;2.47;62.22;100867.47;109578;1264;21982;-83
2022/04/18 04:48:35;;;;;;;27.10;16.50;;;;;;;2.73;62.29;100867.79;109874;1264;24295;-83
2022/04/18 04:51:20;;;;;;;40.50;35.50;;;;;;;2.99;62.13;100863.52;109644;1267;22440;-85
2022/04/18 04:53:51;;;;;;;22.50;15.90;;;;;;;3.25;61.78;100863.15;109005;1273;21978;-85
2022/04/18 04:56:42;;;;;;;17.20;14.10;;;;;;;3.56;61.77;100865.09;109059;1273;22086;-84
2022/04/18 04:59:19;;;;;;;18.70;13.30;;;;;;;3.90;61.76;100866.30;109152;1273;21982;-83
2022/04/18 05:02:00;;;;;;;15.40;12.00;;;;;;;4.28;61.41;100863.88;109176;1273;23025;-85
2022/04/18 05:04:34;;;;;;;18.10;12.60;;;;;;;4.66;61.02;100861.99;109128;1273;22376;-83
2022/04/18 05:07:18;;;;;;;21.20;12.40;;;;;;;5.02;60.14;100862.54;109219;1273;21985;-83
2022/04/18 05:10:08;;;;;;;12.60;9.80;;;;;;;5.35;59.09;100864.30;108855;1273;22353;-84
2022/04/18 05:12:52;;;;;;;15.80;11.60;;;;;;;5.68;58.06;100867.80;109319;1269;21981;-83
2022/04/18 05:15:22;;;;;;;13.10;10.50;;;;;;;5.91;56.86;100868.95;109102;1273;21945;-84
2022/04/18 05:18:27;;;;;;;12.80;10.00;;;;;;;6.20;56.52;100868.83;108975;1273;21985;-82
2022/04/18 05:21:04;;;;;;;12.40;9.50;;;;;;;6.49;55.93;100865.58;108877;1273;22039;-81
2022/04/18 05:23:40;;;;;;;14.10;10.40;;;;;;;6.83;55.85;100867.76;108902;1273;22764;-82
2022/04/18 05:26:23;;;;;;;12.00;10.00;;;;;;;7.16;54.94;100869.47;108847;1273;23581;-83
2022/04/18 05:29:07;;;;;;;12.90;9.70;;;;;;;7.37;53.45;100866.05;108871;1273;22001;-82
2022/04/18 05:31:54;;;;;;;13.40;9.70;;;;;;;7.45;52.12;100870.26;108587;1279;23693;-82
2022/04/18 05:34:27;;;;;;;12.50;10.10;;;;;;;7.59;52.05;100871.17;108920;1270;22049;-83
2022/04/18 05:37:24;;;;;;;16.50;10.80;;;;;;;7.86;52.38;100869.64;109320;1270;22465;-84
2022/04/18 05:40:13;;;;;;;12.50;10.70;;;;;;;8.21;51.60;100867.34;109223;1270;23098;-83
2022/04/18 05:42:47;;;;;;;13.10;10.10;;;;;;;8.40;50.50;100873.50;109203;1270;22284;-83
2022/04/18 05:45:20;;;;;;;11.70;9.90;;;;;;;8.73;51.08;100877.95;109217;1270;21978;-82
2022/04/18 05:48:06;;;;;;;13.10;10.90;;;;;;;9.11;50.45;100876.94;108843;1273;23703;-84
2022/04/18 05:51:03;;;;;;;14.30;9.90;;;;;;;9.43;49.15;100874.92;109264;1268;21982;-83
2022/04/18 05:53:53;;;;;;;12.20;10.30;;;;;;;9.75;48.55;100876.20;109076;1273;22100;-83
2022/04/18 05:56:39;;;;;;;12.50;9.80;;;;;;;10.09;47.65;100878.36;108702;1279;22003;-81
2022/04/18 05:59:26;;;;;;;12.70;10.70;;;;;;;10.32;46.54;100881.33;108628;1278;22098;-81
2022/04/18 06:02:39;;;;;;;14.60;10.60;;;;;;;10.41;45.08;100874.66;108637;1279;21997;-81
2022/04/18 06:05:22;;;;;;;13.80;10.80;;;;;;;10.58;45.55;100876.97;108671;1273;23710;-81
2022/04/18 06:08:03;;;;;;;12.50;10.80;;;;;;;10.95;45.61;100880.48;108920;1273;23059;-82
2022/04/18 06:10:57;;;;;;;14.20;11.00;;;;;;;11.25;44.84;100879.31;108815;1276;21999;-83
2022/04/18 06:14:08;;;;;;;14.40;12.20;;;;;;;11.44;43.37;100878.35;109067;1269;22003;-85
2022/04/18 06:16:45;;;;;;;11.40;10.10;;;;;;;11.53;42.35;100877.76;109443;1270;23606;-83
2022/04/18 06:19:29;;;;;;;12.60;8.80;;;;;;;11.52;42.19;100879.94;108910;1273;21991;-83
2022/04/18 06:22:17;;;;;;;11.90;9.40;;;;;;;11.60;42.08;100877.58;108925;1273;22004;-82
2022/04/18 06:24:53;;;;;;;11.50;9.70;;;;;;;11.58;41.41;100878.10;108936;1273;21996;-83
2022/04/18 06:27:32;;;;;;;10.10;9.00;;;;;;;11.66;41.16;100875.70;109111;1273;23694;-87
2022/04/18 06:30:26;;;;;;;11.70;9.60;;;;;;;11.61;40.14;100874.77;109131;1276;22441;-85
2022/04/18 06:33:16;;;;;;;12.30;9.20;;;;;;;11.43;39.59;100873.39;108905;1277;22043;-82
2022/04/18 06:36:14;;;;;;;10.30;8.90;;;;;;;11.26;39.63;100874.76;109052;1273;21998;-83
2022/04/18 06:39:11;;;;;;;10.60;9.10;;;;;;;11.13;39.89;100876.14;109541;1267;21975;-83
2022/04/18 06:41:57;;;;;;;;;;;;;;;;;;;;;
2022/04/18 06:44:30;;;;;;;10.50;9.20;;;;;;;10.87;39.89;100880.91;109561;1267;21956;-84
2022/04/18 06:47:08;;;;;;;10.90;9.70;;;;;;;10.92;40.54;100882.46;109147;1273;21991;-81
2022/04/18 06:50:10;;;;;;;;;;;;;;;;;;;;;
2022/04/18 06:53:22;;;;;;;11.40;9.10;;;;;;;11.42;41.90;100891.06;108617;1279;23041;-82
2022/04/18 06:59:50;;;;;;;;;;;;;;;;;;;;;
2022/04/18 07:02:49;;;;;;;11.20;9.50;;;;;;;12.23;38.71;100886.95;108576;1279;23622;-80
2022/04/18 07:05:51;;;;;;;10.90;9.10;;;;;;;12.38;39.00;100885.34;108624;1279;23703;-80
2022/04/18 07:08:38;;;;;;;9.60;8.60;;;;;;;12.80;39.11;100882.16;108515;1279;22002;-80
2022/04/18 07:11:45;;;;;;;10.70;8.60;;;;;;;13.10;37.88;100882.66;108262;1279;23073;-80
2022/04/18 07:14:19;;;;;;;10.60;9.30;;;;;;;13.10;36.77;100880.58;107918;1285;21973;-82
2022/04/18 07:17:15;;;;;;;10.90;8.40;;;;;;;13.18;37.34;100881.42;107669;1289;23629;-81
2022/04/18 07:20:15;;;;;;;12.30;8.20;;;;;;;13.32;36.89;100885.70;107521;1288;22034;-80
2022/04/18 07:22:47;;;;;;;10.50;7.80;;;;;;;13.60;37.36;100885.81;107665;1289;22012;-83
2022/04/18 07:25:50;;;;;;;12.40;10.40;;;;;;;14.03;36.82;100888.91;107669;1290;23639;-82
2022/04/18 07:28:38;;;;;;;15.60;13.80;;;;;;;14.22;35.57;100889.39;107785;1283;22293;-82
2022/04/18 07:31:16;;;;;;;9.90;8.30;;;;;;;14.35;34.91;100883.64;108275;1283;22022;-82
2022/04/18 07:34:04;;;;;;;13.20;9.50;;;;;;;14.57;34.86;100879.98;108661;1279;23762;-83
2022/04/18 07:36:50;;;;;;;8.90;8.00;;;;;;;14.90;34.45;100880.63;109047;1268;22037;-82
2022/04/18 07:39:42;;;;;;;10.00;8.60;;;;;;;15.17;34.16;100876.60;109384;1267;21993;-82
2022/04/18 07:42:22;;;;;;;9.40;8.30;;;;;;;15.49;33.73;100872.20;109217;1266;22424;-82
2022/04/18 07:45:13;;;;;;;10.60;9.20;;;;;;;15.71;33.29;100867.39;109403;1267;21978;-84
2022/04/18 07:48:19;;;;;;;;;;;;;;;;;;;;;
2022/04/18 07:51:39;;;;;;;9.90;8.60;;;;;;;16.28;33.06;100869.88;109337;1271;22450;-82
2022/04/18 07:55:06;;;;;;;9.30;7.60;;;;;;;16.79;32.36;100868.38;109061;1271;22023;-83
2022/04/18 07:57:56;;;;;;;8.60;7.10;;;;;;;17.13;31.21;100873.17;106494;1274;3266723;-83
2022/04/18 08:00:35;;;;;;;11.30;10.10;;;;;;;17.38;30.72;100868.46;108924;1273;21977;-82
2022/04/18 08:03:19;;;;;;;9.50;8.10;;;;;;;17.67;30.35;100870.54;108820;1273;22095;-82
2022/04/18 08:05:57;;;;;;;7.70;6.90;;;;;;;17.86;29.56;100868.80;108759;1277;23615;-81
2022/04/18 08:08:35;;;;;;;7.50;6.10;;;;;;;18.22;29.25;100871.18;108432;1279;23728;-82
2022/04/18 08:11:11;;;;;;;11.50;6.40;;;;;;;18.51;28.36;100870.31;108481;1279;21988;-83
2022/04/18 08:13:48;;;;;;;10.10;6.90;;;;;;;18.64;27.50;100869.06;108400;1280;21990;-81
2022/04/18 08:16:37;;;;;;;5.80;5.10;;;;;;;18.74;27.16;100863.02;108527;1280;23099;-81
2022/04/18 08:19:30;;;;;;;7.70;6.00;;;;;;;18.87;26.53;100865.38;108643;1276;21993;-80
2022/04/18 08:22:04;;;;;;;5.90;5.00;;;;;;;18.81;25.94;100861.02;108715;1276;23093;-81
2022/04/18 08:24:36;;;;;;;7.30;5.30;;;;;;;18.65;25.47;100855.44;109058;1270;21982;-83
2022/04/18 08:27:32;;;;;;;5.80;4.30;;;;;;;18.44;25.45;100854.75;108970;1270;22031;-82
2022/04/18 08:30:18;;;;;;;5.30;4.30;;;;;;;18.27;25.59;100852.05;108838;1276;23017;-82
2022/04/18 08:33:37;;;;;;;4.60;3.80;;;;;;;18.23;25.18;100848.63;109119;1273;22229;-84
2022/04/18 08:36:21;;;;;;;4.60;3.30;;;;;;;18.26;25.00;100849.45;109205;1272;22003;-82
2022/04/18 08:39:11;;;;;;;4.20;3.20;;;;;;;18.29;24.36;100844.70;108973;1273;22014;-82
2022/04/18 08:42:15;;;;;;;3.00;2.70;;;;;;;18.28;23.95;100842.46;109132;1273;21986;-82
2022/04/18 08:44:59;;;;;;;5.40;3.00;;;;;;;18.40;23.84;100836.86;108749;1276;22015;-83
2022/04/18 08:53:36;;;;;;;4.00;3.10;;;;;;;17.02;22.51;100831.45;109514;1267;21963;-83
2022/04/18 08:56:26;;;;;;;7.70;3.30;;;;;;;16.44;23.03;100826.77;109847;1264;21973;-81
2022/04/18 08:59:06;;;;;;;3.20;2.70;;;;;;;15.89;23.05;100825.00;109692;1263;21999;-82
2022/04/18 09:01:50;;;;;;;4.90;3.50;;;;;;;15.31;23.50;100830.05;109707;1265;23131;-82
2022/04/18 09:04:35;;;;;;;4.30;3.10;;;;;;;14.72;24.17;100825.55;109600;1264;23797;-82
2022/04/18 09:07:26;;;;;;;5.90;3.60;;;;;;;14.80;25.43;100819.08;109643;1264;23835;-83
2022/04/18 09:10:03;;;;;;;3.20;2.90;;;;;;;15.00;24.96;100821.00;109692;1264;22747;-82
2022/04/18 09:13:14;;;;;;;5.70;5.20;;;;;;;14.95;24.48;100819.80;109885;1263;21978;-81
2022/04/18 09:16:36;;;;;;;4.70;3.30;;;;;;;14.75;24.89;100810.94;109184;1270;22818;-82
2022/04/18 09:19:25;;;;;;;5.50;4.20;;;;;;;14.79;24.92;100805.52;109203;1270;23015;-81
2022/04/18 09:22:29;;;;;;;4.20;3.10;;;;;;;14.95;25.51;100813.81;109149;1270;22072;-81
2022/04/18 09:25:25;;;;;;;3.70;2.50;;;;;;;15.31;25.16;100814.45;108872;1273;22638;-81
2022/04/18 09:28:44;;;;;;;3.70;2.80;;;;;;;15.36;24.31;100813.70;108904;1273;23068;-82
2022/04/18 09:31:37;;;;;;;5.00;3.10;;;;;;;15.37;24.25;100809.05;108505;1280;22681;-83
2022/04/18 09:34:28;;;;;;;5.80;3.40;;;;;;;15.59;24.30;100803.39;109074;1279;22115;-84
2022/04/18 09:37:30;;;;;;;4.90;3.10;;;;;;;15.94;24.54;100804.02;109105;1279;22040;-87
2022/04/18 09:40:22;;;;;;;4.00;2.60;;;;;;;16.38;23.63;100802.88;108962;1278;23766;-85
2022/04/18 09:43:27;;;;;;;3.40;2.80;;;;;;;16.39;22.95;100791.95;108867;1276;23055;-84
2022/04/18 09:46:37;;;;;;;3.70;3.00;;;;;;;16.58;22.74;100799.56;109179;1276;22000;-84
2022/04/18 09:49:39;;;;;;;3.90;2.80;;;;;;;16.63;22.74;100789.92;109391;1270;22007;-86
2022/04/18 09:52:43;;;;;;;3.60;3.00;;;;;;;16.97;23.06;100778.04;109666;1264;23094;-84
2022/04/18 09:55:37;;;;;;;4.40;3.10;;;;;;;17.28;22.57;100772.84;110046;1265;24385;-84
2022/04/18 09:58:26;;;;;;;4.30;2.70;;;;;;;17.43;22.04;100775.70;109974;1264;25062;-85
2022/04/18 10:01:32;;;;;;;3.60;3.00;;;;;;;16.92;21.36;100771.84;110039;1264;21973;-85
2022/04/18 10:04:08;;;;;;;3.70;2.60;;;;;;;16.46;22.26;100768.48;109580;1267;21980;-84
2022/04/18 10:07:29;;;;;;;5.80;3.20;;;;;;;16.69;23.12;100767.80;109418;1273;21986;-87
2022/04/18 10:10:21;;;;;;;3.70;2.70;;;;;;;16.94;22.45;100761.27;109460;1273;22018;-84
2022/04/18 10:13:15;;;;;;;4.60;3.30;;;;;;;17.01;22.08;100765.63;109421;1273;22012;-85
2022/04/18 10:16:20;;;;;;;5.40;4.70;;;;;;;17.01;22.17;100763.31;110607;1261;21978;-85
2022/04/18 10:19:22;;;;;;;;;;;;;;;;;;;;;
2022/04/18 10:22:17;;;;;;;5.80;3.00;;;;;;;16.96;21.77;100754.34;109275;1270;21984;-79
2022/04/18 10:25:05;;;;;;;4.30;2.70;;;;;;;16.82;21.71;100752.30;109218;1270;23568;-78
2022/04/18 10:28:17;;;;;;;;;;;;;;;;;;;;;
2022/04/18 10:31:09;;;;;;;5.30;2.80;;;;;;;16.61;22.08;100746.48;108918;1273;23736;-78
2022/04/18 10:33:41;;;;;;;4.80;3.40;;;;;;;16.70;22.31;100739.39;108456;1279;23604;-79
2022/04/18 10:36:53;;;;;;;4.20;3.80;;;;;;;16.90;22.03;100741.64;108283;1282;21988;-79
2022/04/18 10:39:38;;;;;;;6.00;5.10;;;;;;;16.87;21.71;100737.14;107959;1279;22530;-79
2022/04/18 10:42:32;;;;;;;5.20;3.00;;;;;;;16.90;21.52;100734.01;108041;1285;22194;-78
2022/04/18 10:45:24;;;;;;;4.10;2.70;;;;;;;16.70;21.29;100736.49;107870;1285;23729;-79
2022/04/18 10:48:14;;;;;;;6.20;4.00;;;;;;;16.40;21.39;100732.14;107918;1283;22234;-78
2022/04/18 10:51:00;;;;;;;7.60;4.40;;;;;;;16.10;21.71;100729.45;108260;1282;23094;-77
2022/04/18 10:54:13;;;;;;;4.10;3.10;;;;;;;15.87;22.12;100719.48;108457;1276;22013;-78
2022/04/18 10:57:06;;;;;;;4.50;3.80;;;;;;;15.67;22.20;100723.33;108653;1267;23866;-78
2022/04/18 11:00:06;;;;;;;6.50;4.20;;;;;;;15.32;22.36;100724.88;109176;1264;24328;-78
2022/04/18 11:02:52;;;;;;;5.80;3.10;;;;;;;15.05;22.86;100720.20;109547;1264;22035;-78
2022/04/18 11:05:45;;;;;;;4.90;3.30;;;;;;;14.79;23.06;100723.68;109382;1263;21972;-78
2022/04/18 11:08:36;;;;;;;5.00;3.40;;;;;;;14.46;23.34;100724.88;108972;1267;23613;-79
2022/04/18 11:11:19;;;;;;;7.60;3.90;;;;;;;14.24;23.86;100722.44;108910;1267;23922;-78
2022/04/18 11:13:50;;;;;;;4.50;4.00;;;;;;;14.05;24.01;100720.71;108930;1269;22709;-79
2022/04/18 11:16:30;;;;;;;4.10;3.00;;;;;;;13.80;24.03;100721.55;109029;1270;23694;-78
2022/04/18 11:19:24;;;;;;;3.20;2.90;;;;;;;13.56;24.34;100709.12;108605;1276;22045;-79
2022/04/18 11:22:08;;;;;;;3.40;2.50;;;;;;;13.44;24.74;100708.54;108526;1276;23783;-78
2022/04/18 11:24:57;;;;;;;7.70;4.50;;;;;;;13.35;24.78;100712.02;108595;1276;22004;-79
2022/04/18 11:27:37;;;;;;;7.50;4.50;;;;;;;13.16;24.74;100703.05;108894;1270;21997;-78
2022/04/18 11:30:14;;;;;;;5.80;4.10;;;;;;;13.05;25.14;100697.10;108822;1270;24344;-78
2022/04/18 11:33:03;;;;;;;6.00;3.70;;;;;;;13.04;25.48;100700.06;109083;1273;21987;-79
2022/04/18 11:35:45;;;;;;;3.20;2.50;;;;;;;13.02;25.43;100694.54;108815;1273;23635;-82
2022/04/18 11:38:36;;;;;;;7.80;4.90;;;;;;;13.04;25.53;100685.88;109277;1270;21988;-82
2022/04/18 11:41:18;;;;;;;4.40;3.10;;;;;;;13.12;25.51;100689.70;109373;1267;23800;-81
2022/04/18 11:44:21;;;;;;;3.30;2.80;;;;;;;13.17;25.31;100692.52;109448;1267;21988;-80
2022/04/18 11:46:57;;;;;;;5.30;3.70;;;;;;;13.08;25.11;100687.57;109346;1267;22055;-80
2022/04/18 11:49:29;;;;;;;5.00;4.00;;;;;;;12.98;25.07;100684.64;109393;1267;22144;-80
2022/04/18 11:52:29;;;;;;;5.70;4.40;;;;;;;12.92;25.11;100678.05;109154;1267;21995;-79
2022/04/18 11:55:28;;;;;;;5.20;3.80;;;;;;;12.86;25.13;100676.11;109051;1267;22954;-79
2022/04/18 11:58:14;;;;;;;5.50;4.30;;;;;;;12.83;25.24;100668.99;109415;1267;22572;-80
2022/04/18 12:06:45;;;;;;;4.00;2.70;;;;;;;12.80;25.19;100648.27;108864;1273;23712;-80
2022/04/18 12:09:22;;;;;;;5.30;2.60;;;;;;;12.82;25.18;100643.02;108426;1276;21996;-77
2022/04/18 12:11:52;;;;;;;3.00;2.20;;;;;;;12.80;25.15;100639.48;108213;1282;22472;-79
2022/04/18 12:14:22;;;;;;;4.30;2.90;;;;;;;12.76;25.08;100638.02;108122;1282;22271;-80
2022/04/18 12:17:02;;;;;;;5.40;3.20;;;;;;;12.58;24.95;100635.10;108438;1284;22225;-80
2022/04/18 12:19:41;;;;;;;4.30;2.90;;;;;;;12.43;25.12;100626.86;108451;1276;22470;-78
2022/04/18 12:22:22;;;;;;;3.50;2.50;;;;;;;12.36;25.35;100623.98;108476;1276;21988;-81
2022/04/18 12:25:07;;;;;;;7.90;6.30;;;;;;;12.38;25.60;100627.65;108877;1276;21958;-82
2022/04/18 12:27:50;;;;;;;22.50;20.10;;;;;;;12.35;25.37;100619.82;108742;1270;21986;-78
2022/04/18 12:30:27;;;;;;;5.00;4.10;;;;;;;12.31;25.23;100617.45;108796;1267;23797;-78
2022/04/18 12:33:20;;;;;;;4.60;3.20;;;;;;;12.33;25.40;100610.91;109217;1268;22764;-77
2022/04/18 12:36:00;;;;;;;3.90;2.60;;;;;;;12.33;25.33;100611.97;109374;1267;22802;-79
2022/04/18 12:38:39;;;;;;;4.20;2.70;;;;;;;12.27;25.37;100606.93;108868;1273;22159;-78
2022/04/18 12:41:10;;;;;;;4.20;3.00;;;;;;;12.20;25.47;100608.13;108873;1272;23647;-78
2022/04/18 12:43:39;;;;;;;4.70;2.90;;;;;;;12.18;25.67;100605.70;108949;1273;22083;-79
2022/04/18 12:46:10;;;;;;;2.80;2.40;;;;;;;12.27;25.83;100600.47;108816;1273;21957;-80
2022/04/18 12:48:49;;;;;;;3.40;2.30;;;;;;;12.31;25.58;100599.97;108907;1270;22768;-78
2022/04/18 12:51:38;;;;;;;4.30;3.30;;;;;;;12.32;25.55;100601.16;108859;1272;23121;-78
2022/04/18 12:54:26;;;;;;;4.00;2.60;;;;;;;12.33;25.50;100596.97;109222;1270;21992;-81
2022/04/18 12:56:55;;;;;;;4.80;2.90;;;;;;;12.31;25.44;100591.56;108749;1273;23078;-79
2022/04/18 12:59:32;;;;;;;3.60;2.70;;;;;;;12.29;25.49;100588.61;109084;1267;22043;-78
2022/04/18 13:02:09;;;;;;;5.90;3.60;;;;;;;12.24;25.56;100584.87;109018;1270;23741;-78
2022/04/18 13:04:57;;;;;;;3.20;2.40;;;;;;;12.24;25.51;100583.94;109160;1267;21981;-80
2022/04/18 13:07:27;;;;;;;5.80;3.40;;;;;;;12.25;25.50;100579.08;108935;1268;23822;-79
2022/04/18 13:10:07;;;;;;;4.60;2.90;;;;;;;12.33;25.49;100577.89;109022;1268;22109;-79